Arlington, Maryland
Current Conditions -  °F | °C
As of 12:54 AM on Thursday 27 Nov 2014 (Local Time) from KBWI Reporting Station
Scattered Clouds Scattered Clouds  
Wind Chill: 33°   Ceiling: Unl
Heat Index: 33°   Visibility: 10mi
Dew Point: 31°   Wind: 3mph
Humidity: 92%   Direction: 250°WSW
Pressure: 29.98"   Gusts: NA
Location:  39.3453°N, 76.6832°W
Report Text: KBWI 270554Z 25003KT 10SM FEW060 SCT090 SCT110 01/M01 A2998 RMK AO2 SLP154 60000 T00061006 10022 20006 50009
Loading
Personal Weather Stations






























Interactive Weather Map New forecast layout! Learn more

10-Day Weather Forecast

Advertisements
Track Severe Weather on mobile